Time;durP1;ratioP1;P1;durP2;ratioP2;P2;SDS_P1;SDS_P2;PMS_P1;PMS_P2;Temp;Humidity;BMP_temperature;BMP_pressure;BME280_temperature;BME280_humidity;BME280_pressure;Samples;Min_cycle;Max_cycle;Signal;HPM_P1;HPM_P2
2021/04/16 00:00:38;;;;;;;3.45;1.55;;;;;;;2.56;76.63;102576.59;4975113;28;20173;-64
2021/04/16 00:05:36;;;;;;;7.35;3.08;;;;;;;2.53;76.17;102569.69;4995275;23;20065;-64
2021/04/16 00:08:05;;;;;;;4.72;1.77;;;;;;;2.57;75.48;102576.53;4991816;28;20072;-64
2021/04/16 00:10:38;;;;;;;8.52;2.78;;;;;;;2.48;76.34;102569.88;4992113;28;20049;-64
2021/04/16 00:13:04;;;;;;;7.10;2.10;;;;;;;2.54;76.52;102569.59;4992070;28;20038;-64
2021/04/16 00:15:31;;;;;;;3.40;1.70;;;;;;;2.57;76.15;102562.47;4992082;28;20045;-64
2021/04/16 00:17:57;;;;;;;4.35;2.70;;;;;;;2.60;76.26;102562.34;4991681;28;20057;-64
2021/04/16 00:20:26;;;;;;;7.22;2.53;;;;;;;2.55;76.12;102554.63;4991786;28;20029;-64
2021/04/16 00:22:51;;;;;;;8.50;2.33;;;;;;;2.53;76.51;102557.34;4974944;28;20085;-64
2021/04/16 00:25:20;;;;;;;9.37;2.17;;;;;;;2.51;76.67;102559.19;4991770;28;20058;-64
2021/04/16 00:27:46;;;;;;;7.05;2.78;;;;;;;2.46;76.78;102558.53;4991499;28;20042;-64
2021/04/16 00:30:13;;;;;;;8.10;3.00;;;;;;;2.43;76.66;102555.16;4974679;28;20034;-64
2021/04/16 00:32:39;;;;;;;5.38;2.42;;;;;;;2.39;76.40;102557.09;4991768;28;20443;-64
2021/04/16 00:35:07;;;;;;;7.22;2.17;;;;;;;2.37;76.65;102558.94;4974658;28;20038;-64
2021/04/16 00:37:33;;;;;;;9.45;3.15;;;;;;;2.32;77.20;102553.84;4991571;28;20042;-64
2021/04/16 00:39:58;;;;;;;7.60;2.88;;;;;;;2.28;76.78;102556.69;4991800;28;20047;-64
2021/04/16 00:42:24;;;;;;;7.80;3.33;;;;;;;2.23;77.26;102548.97;4991579;28;20046;-64
2021/04/16 00:44:49;;;;;;;10.80;2.70;;;;;;;2.16;77.63;102549.28;4976384;28;20038;-64
2021/04/16 00:47:18;;;;;;;9.00;3.57;;;;;;;2.13;77.64;102546.75;4978723;28;20034;-64
2021/04/16 00:49:51;;;;;;;5.70;3.05;;;;;;;2.02;77.69;102545.44;4995582;28;20034;-64
2021/04/16 00:52:26;;;;;;;7.07;2.47;;;;;;;1.98;79.02;102537.72;4978590;28;20117;-64
2021/04/16 00:54:51;;;;;;;5.80;2.25;;;;;;;1.94;79.41;102547.53;4978526;28;20054;-64
2021/04/16 00:57:17;;;;;;;7.90;2.03;;;;;;;1.92;80.08;102541.47;4995569;28;20049;-64
2021/04/16 00:59:55;;;;;;;5.13;2.92;;;;;;;1.90;80.03;102546.81;4995414;28;20040;-64
2021/04/16 01:02:21;;;;;;;8.70;3.40;;;;;;;1.85;80.48;102543.50;4995464;28;20463;-64
2021/04/16 01:04:46;;;;;;;9.60;2.10;;;;;;;1.86;80.04;102539.94;4995440;28;20045;-64
2021/04/16 01:07:13;;;;;;;7.80;2.10;;;;;;;1.86;80.07;102539.09;4995218;28;20348;-64
2021/04/16 01:09:38;;;;;;;7.88;2.60;;;;;;;1.82;79.97;102535.72;4994152;28;20534;-64
2021/04/16 01:12:07;;;;;;;7.72;3.38;;;;;;;1.82;80.37;102534.84;4978212;28;20121;-64
2021/04/16 01:14:35;;;;;;;5.75;2.25;;;;;;;1.80;80.89;102539.31;4994515;28;20118;-64
2021/04/16 01:17:00;;;;;;;9.57;2.95;;;;;;;1.79;80.43;102541.09;4995296;28;20038;-64
2021/04/16 01:19:34;;;;;;;8.95;2.55;;;;;;;1.77;80.53;102544.72;4977845;28;20752;-64
2021/04/16 01:22:15;;;;;;;6.50;2.40;;;;;;;1.79;80.34;102542.88;4977842;28;20084;-64
2021/04/16 01:24:40;;;;;;;4.75;2.75;;;;;;;1.83;80.38;102545.34;4994307;28;20065;-64
2021/04/16 01:27:12;;;;;;;6.53;2.77;;;;;;;1.87;80.31;102532.88;4995014;28;20069;-64
2021/04/16 01:29:41;;;;;;;5.45;2.22;;;;;;;1.93;80.20;102531.78;4994874;28;20034;-64
2021/04/16 01:32:09;;;;;;;6.20;3.00;;;;;;;1.90;80.51;102535.41;4977941;28;20113;-64
2021/04/16 01:34:34;;;;;;;4.78;2.42;;;;;;;1.97;80.75;102536.88;4977796;28;20379;-64
2021/04/16 01:37:00;;;;;;;4.47;2.03;;;;;;;1.96;80.43;102536.94;4994973;28;20030;-64
2021/04/16 01:39:27;;;;;;;6.43;2.97;;;;;;;1.97;80.55;102536.88;4994551;28;20117;-64
2021/04/16 01:41:52;;;;;;;7.95;3.22;;;;;;;1.96;79.96;102543.06;4977631;28;20085;-64
2021/04/16 01:44:21;;;;;;;5.97;2.93;;;;;;;2.00;80.53;102533.25;4994881;28;20061;-64
2021/04/16 01:46:59;;;;;;;5.32;2.53;;;;;;;2.04;80.37;102533.06;4994763;28;20053;-64
2021/04/16 01:49:29;;;;;;;5.00;3.05;;;;;;;2.05;79.86;102539.19;4994612;28;20066;-64
2021/04/16 01:51:55;;;;;;;5.30;2.58;;;;;;;2.06;79.91;102536.50;4994528;28;20026;-64
2021/04/16 01:54:26;;;;;;;8.98;4.13;;;;;;;2.03;79.96;102533.13;4994595;28;20269;-64
2021/04/16 01:56:56;;;;;;;5.57;2.33;;;;;;;2.00;80.00;102526.22;4976816;28;20068;-64
2021/04/16 01:59:26;;;;;;;4.43;2.70;;;;;;;1.96;80.27;102534.28;4994236;28;20034;-64
2021/04/16 02:01:52;;;;;;;10.95;3.33;;;;;;;1.98;80.40;102533.31;4977292;28;20074;-64
2021/04/16 02:04:19;;;;;;;6.90;3.30;;;;;;;1.95;80.40;102530.81;4994429;28;20038;-64
2021/04/16 02:06:45;;;;;;;8.18;3.20;;;;;;;1.93;80.89;102535.28;4977250;28;20049;-64
2021/04/16 02:09:15;;;;;;;7.05;2.88;;;;;;;1.92;80.86;102533.59;4994092;28;20035;-63
2021/04/16 02:11:42;;;;;;;6.57;3.55;;;;;;;1.96;81.00;102534.28;4994198;28;20038;-63
2021/04/16 02:14:16;;;;;;;9.07;3.72;;;;;;;1.97;81.11;102525.50;4976993;28;20138;-63
2021/04/16 02:16:47;;;;;;;6.68;3.25;;;;;;;1.95;81.54;102529.97;4994218;28;20042;-64
2021/04/16 02:19:13;;;;;;;7.30;2.50;;;;;;;1.88;81.65;102521.44;4993817;28;20038;-64
2021/04/16 02:21:39;;;;;;;7.07;3.05;;;;;;;1.95;81.60;102527.31;4994037;28;20108;-64
2021/04/16 02:24:06;;;;;;;6.90;3.35;;;;;;;1.97;82.10;102515.81;4994140;28;20443;-64
2021/04/16 02:26:31;;;;;;;;;;;;;;;2.02;81.84;102508.56;4994288;28;20407;-64
2021/04/16 02:28:56;;;;;;;;;;;;;;;1.99;82.16;102513.97;4994083;28;19924;-64
2021/04/16 02:31:22;;;;;;;5.30;3.10;;;;;;;2.03;81.85;102520.81;4994033;28;20005;-64
2021/04/16 02:33:47;;;;;;;7.93;3.50;;;;;;;2.03;81.57;102518.16;4993840;28;20443;-63
2021/04/16 02:36:13;;;;;;;9.70;3.93;;;;;;;2.09;82.04;102506.53;4976721;28;20281;-64
2021/04/16 02:38:38;;;;;;;5.57;3.30;;;;;;;2.14;81.85;102515.09;4993481;28;20038;-64
2021/04/16 02:41:04;;;;;;;10.17;4.20;;;;;;;2.18;82.04;102513.16;4993694;28;20101;-64
2021/04/16 02:43:30;;;;;;;7.15;3.95;;;;;;;2.16;81.77;102509.78;4993683;28;20045;-64
2021/04/16 02:45:56;;;;;;;21.77;4.00;;;;;;;2.10;81.91;102514.34;4993795;28;20069;-64
2021/04/16 02:48:21;;;;;;;6.68;3.25;;;;;;;2.14;82.12;102508.97;4976263;28;20062;-64
2021/04/16 02:50:47;;;;;;;7.97;4.37;;;;;;;2.10;81.79;102506.44;4960476;28;20045;-64
2021/04/16 02:53:12;;;;;;;6.70;3.77;;;;;;;2.08;81.27;102507.44;4976323;28;20285;-64
2021/04/16 02:55:38;;;;;;;9.33;5.10;;;;;;;1.99;80.67;102510.44;4976391;28;20108;-64
2021/04/16 02:58:04;;;;;;;8.30;4.13;;;;;;;1.91;81.14;102510.78;4975837;28;20057;-64
2021/04/16 03:00:31;;;;;;;8.48;4.15;;;;;;;1.84;81.18;102504.91;4976318;28;20052;-64
2021/04/16 03:02:57;;;;;;;14.35;5.00;;;;;;;1.79;81.27;102501.59;4993366;28;20034;-64
2021/04/16 03:05:23;;;;;;;5.72;3.08;;;;;;;1.73;81.20;102506.25;4976047;28;20041;-64
2021/04/16 03:07:52;;;;;;;7.68;4.07;;;;;;;1.64;80.92;102502.25;4975027;28;20049;-64
2021/04/16 03:10:20;;;;;;;7.30;3.70;;;;;;;1.58;81.14;102503.31;4975868;28;20077;-64
2021/04/16 03:12:45;;;;;;;8.73;3.65;;;;;;;1.55;81.11;102502.59;4959772;28;20041;-64
2021/04/16 03:15:11;;;;;;;10.97;4.53;;;;;;;1.43;81.07;102504.81;4976109;28;20121;-64
2021/04/16 03:17:37;;;;;;;7.03;3.45;;;;;;;1.38;81.32;102500.63;4992875;28;20053;-64
2021/04/16 03:20:05;;;;;;;7.10;3.67;;;;;;;1.29;81.49;102495.72;4959427;28;20101;-64
2021/04/16 03:22:30;;;;;;;8.10;4.18;;;;;;;1.25;81.41;102503.72;4992774;28;20049;-64
2021/04/16 03:24:55;;;;;;;6.90;4.33;;;;;;;1.26;81.39;102509.84;4975643;28;20117;-64
2021/04/16 03:29:50;;;;;;;4.57;2.95;;;;;;;1.14;81.56;102508.53;4970247;28;20049;-64
2021/04/16 03:32:15;;;;;;;7.20;3.57;;;;;;;1.11;82.29;102508.66;4972973;28;20038;-64
2021/04/16 03:34:41;;;;;;;7.57;3.10;;;;;;;1.03;81.55;102510.72;4973344;28;20062;-64
2021/04/16 03:37:06;;;;;;;5.63;3.43;;;;;;;0.98;81.55;102517.94;4956466;28;20035;-65
2021/04/16 03:39:31;;;;;;;8.70;3.33;;;;;;;0.91;81.75;102513.81;4972914;28;20461;-65
2021/04/16 03:41:57;;;;;;;8.23;3.73;;;;;;;0.93;81.89;102525.13;4956242;28;20113;-64
2021/04/16 03:44:22;;;;;;;8.67;3.93;;;;;;;0.93;82.92;102515.47;4955968;28;20057;-65
2021/04/16 03:46:47;;;;;;;7.87;3.80;;;;;;;0.97;82.50;102521.50;4940557;28;20101;-65
2021/04/16 03:49:13;;;;;;;8.10;3.77;;;;;;;1.00;82.51;102518.72;4972483;28;20176;-65
2021/04/16 03:51:56;;;;;;;9.10;4.03;;;;;;;1.00;82.16;102519.59;4956000;28;20039;-64
2021/04/16 03:54:22;;;;;;;7.18;3.90;;;;;;;1.06;82.60;102521.16;4955845;28;20121;-64
2021/04/16 03:56:48;;;;;;;;;;;;;;;1.09;82.75;102514.91;4973473;28;20034;-64
2021/04/16 03:59:13;;;;;;;;;;;;;;;1.11;82.67;102519.19;4973036;28;19924;-65
2021/04/16 04:01:39;;;;;;;7.70;3.78;;;;;;;1.15;82.85;102499.75;4955877;28;19914;-65
2021/04/16 04:04:04;;;;;;;10.35;4.07;;;;;;;1.17;83.02;102507.56;4955851;28;20043;-65
2021/04/16 04:06:30;;;;;;;7.53;4.03;;;;;;;1.19;83.31;102505.75;4955779;28;20065;-65
2021/04/16 04:08:55;;;;;;;8.03;5.33;;;;;;;1.22;83.84;102506.50;4972647;28;20046;-64
2021/04/16 04:11:21;;;;;;;14.87;4.90;;;;;;;1.26;83.65;102512.47;4972805;28;20027;-65
2021/04/16 04:13:46;;;;;;;11.17;4.20;;;;;;;1.32;83.81;102504.34;4955865;28;20468;-65
2021/04/16 04:16:11;;;;;;;15.13;5.07;;;;;;;1.38;84.20;102516.41;4955681;28;20130;-65
2021/04/16 04:18:36;;;;;;;9.80;4.63;;;;;;;1.44;84.42;102516.19;4955132;28;20070;-65
2021/04/16 04:21:03;;;;;;;11.27;5.13;;;;;;;1.43;84.34;102517.97;4972356;28;20034;-64
2021/04/16 04:23:28;;;;;;;12.68;4.70;;;;;;;1.48;84.66;102518.63;4972510;28;20618;-65
2021/04/16 04:25:54;;;;;;;42.17;17.63;;;;;;;1.47;85.04;102527.47;4972581;28;20039;-65
2021/04/16 04:28:19;;;;;;;12.93;6.18;;;;;;;1.49;85.59;102522.13;4938892;28;20483;-65
2021/04/16 04:30:45;;;;;;;15.05;6.20;;;;;;;1.58;85.85;102523.53;4972278;28;20121;-65
2021/04/16 04:33:11;;;;;;;11.18;5.55;;;;;;;1.67;85.58;102529.28;4972534;28;20116;-64
2021/04/16 04:35:36;;;;;;;15.57;7.27;;;;;;;1.69;86.08;102535.34;4955046;28;20058;-65
2021/04/16 04:38:02;;;;;;;11.00;5.80;;;;;;;1.73;85.73;102532.59;4972129;28;20034;-64
2021/04/16 04:40:28;;;;;;;13.43;4.88;;;;;;;1.71;85.39;102527.41;4972063;28;20043;-65
2021/04/16 04:42:54;;;;;;;15.90;8.05;;;;;;;1.73;85.55;102528.16;4972479;28;20049;-65
2021/04/16 04:45:21;;;;;;;15.95;6.22;;;;;;;1.85;86.08;102526.81;4972054;28;20141;-65
2021/04/16 04:47:46;;;;;;;13.02;6.43;;;;;;;1.92;85.78;102530.94;4955057;28;20047;-65
2021/04/16 04:50:13;;;;;;;13.85;6.40;;;;;;;2.03;85.88;102538.41;4955393;28;20039;-65
2021/04/16 04:52:40;;;;;;;18.13;7.07;;;;;;;2.10;86.03;102540.69;4972198;28;20035;-65
2021/04/16 04:55:12;;;;;;;14.23;7.22;;;;;;;2.19;86.19;102535.97;4955343;28;20045;-65
2021/04/16 04:57:38;;;;;;;13.05;6.32;;;;;;;2.22;85.81;102536.69;4971680;28;20050;-65
2021/04/16 05:00:06;;;;;;;18.25;7.32;;;;;;;2.30;85.81;102539.03;4955360;28;20035;-64
2021/04/16 05:02:32;;;;;;;11.65;5.57;;;;;;;2.35;85.95;102550.22;4972073;28;20031;-64
2021/04/16 05:04:57;;;;;;;18.03;7.20;;;;;;;2.43;85.61;102549.88;4972099;28;20474;-65
2021/04/16 05:07:23;;;;;;;24.50;6.80;;;;;;;2.50;85.74;102546.91;4954808;28;20471;-65
2021/04/16 05:09:48;;;;;;;14.37;7.47;;;;;;;2.57;85.55;102550.16;4955042;28;20078;-65
2021/04/16 05:12:14;;;;;;;19.67;7.90;;;;;;;2.63;85.48;102546.41;4955033;28;20281;-65
2021/04/16 05:14:39;;;;;;;16.27;8.60;;;;;;;2.69;85.38;102554.91;4955200;28;20061;-65
2021/04/16 05:17:05;;;;;;;22.90;8.40;;;;;;;2.70;85.38;102547.84;4955201;28;20035;-65
2021/04/16 05:19:31;;;;;;;18.52;8.13;;;;;;;2.82;85.47;102552.56;4971770;28;20429;-65
2021/04/16 05:21:58;;;;;;;19.20;6.82;;;;;;;2.88;85.03;102551.44;4939021;28;20412;-65
2021/04/16 05:24:23;;;;;;;13.82;7.40;;;;;;;2.96;84.74;102559.88;4972176;28;20039;-65
2021/04/16 05:26:49;;;;;;;14.87;7.00;;;;;;;3.07;84.80;102562.06;4972035;28;20345;-65
2021/04/16 05:29:14;;;;;;;19.90;7.65;;;;;;;3.16;83.79;102556.31;4938659;28;20046;-65
2021/04/16 05:31:40;;;;;;;18.37;8.93;;;;;;;3.17;83.98;102555.41;4974573;28;20031;-65
2021/04/16 05:34:06;;;;;;;17.50;8.05;;;;;;;3.27;83.18;102564.63;4975381;28;20061;-65
2021/04/16 05:36:31;;;;;;;21.23;7.20;;;;;;;3.25;83.07;102561.19;4975680;28;20035;-65
2021/04/16 05:38:57;;;;;;;15.73;8.18;;;;;;;3.32;82.97;102562.59;4975019;28;20440;-65
2021/04/16 05:41:23;;;;;;;17.35;7.18;;;;;;;3.32;82.56;102564.41;4975412;28;20034;-65
2021/04/16 05:43:49;;;;;;;19.27;7.47;;;;;;;3.66;84.75;102557.56;4958270;28;20045;-64
2021/04/16 05:46:14;;;;;;;14.38;7.07;;;;;;;4.05;82.99;102567.97;4975480;28;20043;-64
2021/04/16 05:48:40;;;;;;;16.92;7.97;;;;;;;4.08;80.89;102574.91;4974523;28;20345;-64
2021/04/16 05:51:06;;;;;;;17.93;6.80;;;;;;;4.21;78.68;102573.34;4958100;28;20375;-65
2021/04/16 05:53:31;;;;;;;15.73;5.75;;;;;;;4.32;79.37;102575.47;4974536;28;20798;-64
2021/04/16 05:55:57;;;;;;;15.13;7.00;;;;;;;4.48;78.26;102570.25;4957825;28;20046;-64
2021/04/16 05:58:22;;;;;;;14.40;7.00;;;;;;;4.61;77.61;102585.41;4977861;23;20058;-72
2021/04/16 06:00:48;;;;;;;16.70;7.17;;;;;;;4.74;77.14;102582.13;4976970;28;20356;-71
2021/04/16 06:03:16;;;;;;;12.83;6.77;;;;;;;4.81;76.42;102589.66;4994404;28;20293;-71
2021/04/16 06:05:41;;;;;;;15.65;6.88;;;;;;;5.04;76.30;102582.31;4976869;28;20103;-71
2021/04/16 06:08:06;;;;;;;23.13;7.93;;;;;;;5.23;75.44;102585.69;5008981;23;20034;-65
2021/04/16 06:10:32;;;;;;;15.80;7.57;;;;;;;5.39;75.25;102579.56;4993986;28;20073;-65
2021/04/16 06:12:57;;;;;;;10.97;6.83;;;;;;;5.63;73.12;102578.19;4976191;28;20030;-65
2021/04/16 06:15:25;;;;;;;13.80;6.10;;;;;;;5.90;72.24;102575.78;4993750;28;20477;-65
2021/04/16 06:17:50;;;;;;;13.02;6.07;;;;;;;6.21;71.68;102574.06;4993196;28;20157;-63
2021/04/16 06:20:20;;;;;;;13.20;6.03;;;;;;;6.41;70.00;102572.03;4976729;28;20117;-65
2021/04/16 06:22:47;;;;;;;9.23;5.28;;;;;;;6.65;68.02;102578.53;4976527;28;20030;-65
2021/04/16 06:25:16;;;;;;;7.68;4.43;;;;;;;6.90;66.02;102577.03;4969069;23;20047;-71
2021/04/16 06:27:42;;;;;;;7.45;3.53;;;;;;;6.78;63.35;102577.78;4954462;29;20212;-71
2021/04/16 06:30:08;;;;;;;9.13;4.50;;;;;;;6.85;61.21;102573.81;4953592;29;20372;-71
2021/04/16 06:32:35;;;;;;;8.05;3.53;;;;;;;7.26;60.53;102573.03;4954573;29;20097;-71
2021/04/16 06:35:00;;;;;;;4.40;2.92;;;;;;;7.32;56.45;102575.31;4953701;29;20042;-71
2021/04/16 06:37:25;;;;;;;8.13;2.37;;;;;;;7.67;56.48;102572.22;4954171;29;20039;-71
2021/04/16 06:39:51;;;;;;;7.20;3.47;;;;;;;7.93;56.33;102582.00;4954098;29;20035;-71
2021/04/16 06:42:29;;;;;;;4.63;2.87;;;;;;;8.20;54.11;102575.84;4955074;28;20035;-69
2021/04/16 06:44:57;;;;;;;3.47;2.45;;;;;;;8.42;53.55;102578.78;4953993;29;20038;-71
2021/04/16 06:47:25;;;;;;;3.80;2.35;;;;;;;8.44;52.29;102576.88;4952134;29;20038;-71
2021/04/16 06:49:55;;;;;;;3.42;1.73;;;;;;;8.27;51.79;102570.97;4952458;29;20432;-71
2021/04/16 06:52:28;;;;;;;3.42;1.92;;;;;;;8.11;52.81;102581.78;4952615;29;20432;-72
2021/04/16 06:54:59;;;;;;;4.93;1.75;;;;;;;7.91;51.82;102575.09;4952450;29;20054;-70
2021/04/16 06:57:42;;;;;;;5.40;1.92;;;;;;;7.98;52.10;102576.38;4951338;29;20137;-70
2021/04/16 07:00:30;;;;;;;5.85;2.20;;;;;;;8.22;51.82;102579.25;4952609;29;20039;-70
2021/04/16 07:03:05;;;;;;;4.45;1.73;;;;;;;8.51;51.38;102572.00;4954113;29;20082;-70
2021/04/16 07:05:58;;;;;;;2.97;1.55;;;;;;;9.03;50.60;102570.19;4953232;29;20035;-70
2021/04/16 07:08:41;;;;;;;6.30;2.28;;;;;;;8.80;51.03;102570.00;4950604;29;20043;-70
2021/04/16 07:11:25;;;;;;;5.13;2.08;;;;;;;9.16;50.85;102573.69;4954178;29;20031;-70
2021/04/16 07:13:52;;;;;;;5.25;1.73;;;;;;;9.46;48.52;102576.00;4954029;29;20051;-70
2021/04/16 07:16:21;;;;;;;4.22;1.70;;;;;;;9.46;49.28;102572.47;4953003;29;20034;-70
2021/04/16 07:18:49;;;;;;;6.28;1.40;;;;;;;9.36;48.14;102571.41;4952876;29;20039;-70
2021/04/16 07:21:17;;;;;;;3.72;2.08;;;;;;;9.33;49.17;102580.50;4953831;29;20039;-70
2021/04/16 07:23:53;;;;;;;6.05;2.28;;;;;;;9.64;48.44;102570.28;4952891;29;20070;-70
2021/04/16 07:26:42;;;;;;;3.60;1.50;;;;;;;9.69;46.98;102573.44;5253885;23;20047;-70
2021/04/16 07:29:15;;;;;;;2.58;1.65;;;;;;;9.68;46.12;102567.28;4952417;28;20515;-70
2021/04/16 07:31:47;;;;;;;2.90;1.15;;;;;;;9.89;45.44;102575.50;4952952;29;20140;-70
2021/04/16 07:34:30;;;;;;;1.02;0.88;;;;;;;9.41;44.92;102571.94;4968776;28;20035;-70
2021/04/16 07:37:05;;;;;;;2.35;0.85;;;;;;;9.76;44.10;102579.19;4968721;28;20530;-70
2021/04/16 07:39:34;;;;;;;1.27;0.65;;;;;;;10.04;42.55;102573.50;4952293;29;20039;-70
2021/04/16 07:42:08;;;;;;;1.70;0.73;;;;;;;9.69;42.48;102571.66;4953436;28;20125;-70
2021/04/16 07:44:35;;;;;;;2.28;0.60;;;;;;;10.88;45.91;102574.28;4952759;29;20039;-70
2021/04/16 07:47:07;;;;;;;2.75;0.95;;;;;;;11.05;43.25;102569.41;4969125;28;20415;-70
2021/04/16 07:49:36;;;;;;;0.50;0.50;;;;;;;10.80;39.50;102576.72;4953620;29;20471;-70
2021/04/16 07:52:40;;;;;;;2.03;0.60;;;;;;;10.27;38.82;102571.78;4953961;28;20043;-70
2021/04/16 07:55:37;;;;;;;0.77;0.57;;;;;;;10.00;40.25;102571.22;4968402;28;20054;-70
2021/04/16 07:58:21;;;;;;;0.77;0.70;;;;;;;10.30;41.31;102570.75;5007228;23;20046;-71
2021/04/16 08:00:50;;;;;;;1.42;0.65;;;;;;;10.77;40.89;102576.94;4991018;28;20034;-70
2021/04/16 08:03:25;;;;;;;2.42;0.90;;;;;;;10.94;39.62;102575.63;4991874;28;20455;-70
2021/04/16 08:05:54;;;;;;;1.27;0.80;;;;;;;11.16;39.42;102578.28;4990923;28;20454;-70
2021/04/16 08:08:26;;;;;;;2.97;0.95;;;;;;;10.96;37.21;102579.88;4991384;28;20466;-70
2021/04/16 08:11:13;;;;;;;1.05;0.88;;;;;;;10.42;40.21;102580.50;4974632;28;20124;-71
2021/04/16 08:13:41;;;;;;;1.20;0.70;;;;;;;10.89;39.11;102581.34;4990572;28;20344;-71
2021/04/16 08:16:16;;;;;;;3.58;0.75;;;;;;;11.12;39.52;102587.56;4991636;28;20045;-70
2021/04/16 08:18:46;;;;;;;0.80;0.73;;;;;;;11.47;38.55;102580.34;4974270;28;20038;-70
2021/04/16 08:21:20;;;;;;;1.45;0.80;;;;;;;11.84;37.12;102588.91;4974896;28;20034;-70
2021/04/16 08:23:57;;;;;;;1.88;0.80;;;;;;;12.10;36.55;102588.59;4992177;28;20049;-70
2021/04/16 08:26:26;;;;;;;2.80;0.70;;;;;;;11.81;36.53;102578.47;4992059;28;20044;-70
2021/04/16 08:29:07;;;;;;;1.80;0.73;;;;;;;11.96;35.87;102581.72;4991267;28;20038;-70
2021/04/16 08:31:50;;;;;;;1.42;0.70;;;;;;;12.04;35.76;102585.47;4974670;28;20034;-70
2021/04/16 08:34:20;;;;;;;1.23;0.63;;;;;;;12.28;35.86;102586.22;4991922;28;20762;-70
2021/04/16 08:36:47;;;;;;;1.73;0.80;;;;;;;12.30;36.26;102587.81;4974459;28;20348;-71
2021/04/16 08:39:34;;;;;;;1.17;0.60;;;;;;;12.46;36.00;102580.16;4973478;28;20093;-70
2021/04/16 08:42:07;;;;;;;4.13;1.00;;;;;;;12.63;35.37;102584.09;4973820;28;20344;-70
2021/04/16 08:44:39;;;;;;;0.50;0.50;;;;;;;12.81;35.53;102583.50;4974373;28;20034;-70
2021/04/16 08:47:11;;;;;;;4.75;0.70;;;;;;;12.38;36.22;102588.00;4974668;28;20043;-70
2021/04/16 08:49:36;;;;;;;1.27;0.60;;;;;;;12.87;35.28;102589.16;4990754;28;20053;-70
2021/04/16 08:52:44;;;;;;;0.90;0.60;;;;;;;12.81;34.25;102594.22;4974400;28;20034;-71
2021/04/16 08:55:19;;;;;;;2.45;0.80;;;;;;;12.82;34.25;102587.88;4951173;29;20047;-71
2021/04/16 08:57:51;;;;;;;1.73;0.70;;;;;;;12.72;35.40;102585.13;4950590;29;20163;-71
2021/04/16 09:00:29;;;;;;;2.75;0.70;;;;;;;12.17;34.87;102582.59;4974983;28;20054;-71
2021/04/16 09:02:58;;;;;;;2.50;0.82;;;;;;;12.79;34.42;102585.47;4991236;28;20042;-70
2021/04/16 09:05:35;;;;;;;2.33;0.50;;;;;;;12.63;31.81;102588.59;4992651;28;20096;-70
2021/04/16 09:08:06;;;;;;;1.30;0.45;;;;;;;12.55;34.48;102588.38;4992666;28;20046;-70
2021/04/16 09:10:32;;;;;;;1.02;0.57;;;;;;;12.94;32.99;102572.56;4976665;28;20042;-70
2021/04/16 09:13:06;;;;;;;1.53;0.70;;;;;;;13.14;32.07;102574.34;4976410;28;20053;-71
2021/04/16 09:15:34;;;;;;;8.27;2.35;;;;;;;13.51;32.30;102580.00;4993862;28;20137;-71
2021/04/16 09:17:59;;;;;;;1.33;0.75;;;;;;;13.37;31.10;102577.72;4993541;28;20038;-71
2021/04/16 09:20:48;;;;;;;2.67;0.53;;;;;;;13.14;32.83;102571.66;4993790;28;20069;-71
2021/04/16 09:23:39;;;;;;;1.23;0.73;;;;;;;13.43;31.37;102570.94;4977833;28;20486;-71
2021/04/16 09:26:08;;;;;;;1.20;0.60;;;;;;;13.07;32.37;102570.50;4977952;28;20046;-71
2021/04/16 09:28:54;;;;;;;3.72;0.80;;;;;;;13.64;32.30;102554.75;4977722;28;20038;-71
2021/04/16 09:31:23;;;;;;;3.20;0.68;;;;;;;12.75;33.23;102565.25;4978009;28;20077;-71
2021/04/16 09:34:03;;;;;;;0.82;0.38;;;;;;;13.71;31.14;102558.56;4995044;28;20046;-71
2021/04/16 09:36:29;;;;;;;2.20;0.60;;;;;;;13.92;32.91;102567.34;4977845;28;20066;-70
2021/04/16 09:39:06;;;;;;;4.27;0.60;;;;;;;14.03;31.17;102568.22;4977571;28;20141;-71
2021/04/16 09:41:35;;;;;;;1.45;0.50;;;;;;;13.97;29.70;102566.09;4993950;28;20092;-71
2021/04/16 09:44:29;;;;;;;0.93;0.60;;;;;;;13.31;31.63;102559.47;4993910;28;20044;-71
2021/04/16 09:46:56;;;;;;;54.53;18.75;;;;;;;13.87;38.86;102564.25;4994720;28;20034;-71
2021/04/16 09:49:25;;;;;;;12.88;5.72;;;;;;;15.12;32.44;102557.97;4977465;28;20030;-71
2021/04/16 09:51:53;;;;;;;8.25;3.28;;;;;;;15.28;32.35;102562.72;4977553;28;20045;-71
2021/04/16 09:54:21;;;;;;;3.03;0.70;;;;;;;15.71;27.70;102556.69;4994657;28;20042;-71
2021/04/16 09:57:02;;;;;;;0.98;0.75;;;;;;;14.85;29.59;102562.34;4994445;28;20068;-71
2021/04/16 09:59:35;;;;;;;2.28;0.70;;;;;;;15.24;29.43;102561.31;4977303;28;20528;-71
2021/04/16 10:02:10;;;;;;;1.10;0.60;;;;;;;14.73;28.09;102560.81;4977229;28;20430;-70
2021/04/16 10:05:13;;;;;;;2.25;0.63;;;;;;;13.96;29.66;102559.88;4994577;28;20057;-70
2021/04/16 10:07:44;;;;;;;1.85;0.82;;;;;;;14.46;31.36;102556.16;4994146;28;20111;-70
2021/04/16 10:10:36;;;;;;;1.38;0.65;;;;;;;14.43;29.34;102567.22;4994446;28;20117;-71
2021/04/16 10:13:13;;;;;;;3.88;0.82;;;;;;;14.89;29.15;102570.94;4977105;28;20038;-71
2021/04/16 10:15:43;;;;;;;2.22;0.90;;;;;;;14.70;29.64;102564.66;4977150;28;20049;-71
2021/04/16 10:18:17;;;;;;;4.15;0.90;;;;;;;15.04;29.25;102564.09;4993891;28;20459;-71
2021/04/16 10:21:04;;;;;;;2.35;1.02;;;;;;;14.19;29.31;102565.81;4994093;28;20045;-71
2021/04/16 10:23:38;;;;;;;2.90;0.80;;;;;;;14.90;29.21;102564.59;4994123;28;20099;-71
2021/04/16 10:45:07;;;;;;;5.90;1.65;;;;;;;14.38;30.38;102548.84;4993662;28;20050;-72
2021/04/16 12:39:11;;;;;;;1.08;0.60;;;;;;;15.53;27.18;102488.50;4973477;28;20105;-65
2021/04/16 12:41:42;;;;;;;3.95;0.65;;;;;;;15.83;26.67;102492.69;4974014;28;20499;-65
2021/04/16 12:44:18;;;;;;;3.45;1.05;;;;;;;16.30;26.95;102478.06;4990366;28;20045;-65
2021/04/16 12:46:44;;;;;;;12.55;2.10;;;;;;;15.88;26.13;102485.00;4972132;23;20478;-73
2021/04/16 12:49:09;;;;;;;1.60;0.50;;;;;;;15.33;27.76;102487.78;5013584;23;20046;-65
2021/04/16 12:51:35;;;;;;;2.30;0.70;;;;;;;14.76;27.22;102478.03;4990357;28;20139;-66
2021/04/16 12:54:00;;;;;;;1.00;0.60;;;;;;;15.12;26.76;102458.44;5005166;23;20047;-65
2021/04/16 12:56:40;;;;;;;1.30;0.70;;;;;;;15.66;27.77;102477.34;5119446;23;20047;-66
2021/04/16 12:59:10;;;;;;;1.92;0.50;;;;;;;15.89;27.07;102469.66;4973915;28;20104;-66
2021/04/16 13:01:36;;;;;;;1.60;1.08;;;;;;;15.44;28.78;102468.72;5001513;23;20066;-74
2021/04/16 13:04:01;;;;;;;1.77;0.90;;;;;;;15.56;27.17;102475.56;4997819;23;20133;-74
2021/04/16 13:06:42;;;;;;;2.00;0.87;;;;;;;15.35;26.14;102469.63;5007158;23;20049;-66
2021/04/16 13:09:09;;;;;;;3.20;0.82;;;;;;;15.17;27.31;102475.84;4991123;28;20046;-66
2021/04/16 13:11:35;;;;;;;2.35;0.75;;;;;;;14.93;27.53;102476.38;4974109;28;20149;-66
2021/04/16 13:14:01;;;;;;;1.90;0.47;;;;;;;14.38;29.14;102473.59;4974356;28;20117;-66
2021/04/16 13:16:26;;;;;;;2.47;0.80;;;;;;;13.58;28.30;102472.09;4991214;28;20038;-66
2021/04/16 13:18:55;;;;;;;1.85;0.85;;;;;;;13.70;31.59;102482.56;4991111;28;20034;-66
2021/04/16 13:21:27;;;;;;;2.85;0.80;;;;;;;13.75;29.15;102473.25;4991162;28;20065;-66
2021/04/16 13:23:52;;;;;;;3.00;0.70;;;;;;;13.74;30.18;102464.34;4991289;28;20054;-66
2021/04/16 13:26:18;;;;;;;0.93;0.67;;;;;;;14.16;30.20;102480.13;4991203;28;20118;-66
2021/04/16 13:28:43;;;;;;;3.80;0.87;;;;;;;14.49;28.83;102464.50;4990999;28;20078;-65
2021/04/16 13:31:10;;;;;;;4.03;0.93;;;;;;;13.87;28.67;102464.91;4991095;28;20097;-65
2021/04/16 13:33:39;;;;;;;5.35;1.35;;;;;;;14.61;30.40;102471.44;4991211;28;20041;-65
2021/04/16 13:36:07;;;;;;;2.90;0.70;;;;;;;15.15;28.37;102461.69;4991009;28;20050;-65
2021/04/16 13:38:32;;;;;;;1.50;0.82;;;;;;;14.63;29.91;102463.22;4989927;28;20461;-66
2021/04/16 13:41:01;;;;;;;2.80;1.00;;;;;;;14.44;29.42;102466.78;4973868;28;20053;-66
2021/04/16 13:43:28;;;;;;;3.83;0.93;;;;;;;15.44;29.87;102460.66;4990068;28;20042;-66
2021/04/16 13:45:53;;;;;;;6.55;1.40;;;;;;;15.15;29.43;102463.53;4973915;28;20093;-66
2021/04/16 13:48:19;;;;;;;1.50;1.10;;;;;;;15.08;29.38;102460.59;4990895;28;20474;-66
2021/04/16 13:50:45;;;;;;;4.60;1.13;;;;;;;14.62;31.61;102465.06;4973852;28;20042;-66
2021/04/16 13:53:11;;;;;;;2.13;1.23;;;;;;;13.88;30.55;102447.81;4994596;28;20088;-66
2021/04/16 13:55:36;;;;;;;4.78;1.10;;;;;;;14.75;31.62;102454.00;4994470;28;20518;-66